sensor_id;sensor_type;location;lat;lon;timestamp;P1;durP1;ratioP1;P2;durP2;ratioP2
14688;SDS011;7432;48.728;9.154;2022-10-31T00:01:47;8.53;;;6.10;;
14688;SDS011;7432;48.728;9.154;2022-10-31T00:04:13;8.23;;;6.03;;
14688;SDS011;7432;48.728;9.154;2022-10-31T00:06:41;8.27;;;6.10;;
14688;SDS011;7432;48.728;9.154;2022-10-31T00:09:08;7.67;;;5.73;;
14688;SDS011;7432;48.728;9.154;2022-10-31T00:11:35;6.13;;;5.53;;
14688;SDS011;7432;48.728;9.154;2022-10-31T00:14:02;10.07;;;6.70;;
14688;SDS011;7432;48.728;9.154;2022-10-31T00:16:29;6.33;;;5.77;;
14688;SDS011;7432;48.728;9.154;2022-10-31T00:18:56;7.90;;;5.80;;
14688;SDS011;7432;48.728;9.154;2022-10-31T00:21:24;6.60;;;5.87;;
14688;SDS011;7432;48.728;9.154;2022-10-31T00:23:52;6.67;;;6.07;;
14688;SDS011;7432;48.728;9.154;2022-10-31T00:26:19;10.10;;;5.60;;
14688;SDS011;7432;48.728;9.154;2022-10-31T00:28:46;6.77;;;5.87;;
14688;SDS011;7432;48.728;9.154;2022-10-31T00:31:13;7.77;;;6.07;;
14688;SDS011;7432;48.728;9.154;2022-10-31T00:33:40;10.10;;;6.13;;
14688;SDS011;7432;48.728;9.154;2022-10-31T00:36:07;8.67;;;5.40;;
14688;SDS011;7432;48.728;9.154;2022-10-31T00:38:37;7.33;;;5.50;;
14688;SDS011;7432;48.728;9.154;2022-10-31T00:41:05;8.60;;;5.87;;
14688;SDS011;7432;48.728;9.154;2022-10-31T00:43:31;7.20;;;5.50;;
14688;SDS011;7432;48.728;9.154;2022-10-31T00:45:57;7.97;;;6.00;;
14688;SDS011;7432;48.728;9.154;2022-10-31T00:48:24;6.50;;;5.90;;
14688;SDS011;7432;48.728;9.154;2022-10-31T00:50:50;8.53;;;6.17;;
14688;SDS011;7432;48.728;9.154;2022-10-31T00:53:17;8.20;;;6.03;;
14688;SDS011;7432;48.728;9.154;2022-10-31T00:55:43;7.50;;;5.90;;
14688;SDS011;7432;48.728;9.154;2022-10-31T00:58:11;8.87;;;6.27;;
14688;SDS011;7432;48.728;9.154;2022-10-31T01:00:37;7.60;;;5.50;;
14688;SDS011;7432;48.728;9.154;2022-10-31T01:03:04;9.17;;;5.50;;
14688;SDS011;7432;48.728;9.154;2022-10-31T01:05:30;7.73;;;5.40;;
14688;SDS011;7432;48.728;9.154;2022-10-31T01:07:57;7.07;;;5.50;;
14688;SDS011;7432;48.728;9.154;2022-10-31T01:10:24;10.60;;;6.33;;
14688;SDS011;7432;48.728;9.154;2022-10-31T01:12:50;7.23;;;5.30;;
14688;SDS011;7432;48.728;9.154;2022-10-31T01:15:19;7.83;;;5.33;;
14688;SDS011;7432;48.728;9.154;2022-10-31T01:17:46;9.43;;;5.97;;
14688;SDS011;7432;48.728;9.154;2022-10-31T01:20:14;8.93;;;5.40;;
14688;SDS011;7432;48.728;9.154;2022-10-31T01:22:41;8.03;;;5.73;;
14688;SDS011;7432;48.728;9.154;2022-10-31T01:25:08;10.33;;;6.03;;
14688;SDS011;7432;48.728;9.154;2022-10-31T01:27:35;11.80;;;5.60;;
14688;SDS011;7432;48.728;9.154;2022-10-31T01:30:02;10.43;;;6.00;;
14688;SDS011;7432;48.728;9.154;2022-10-31T01:32:30;7.97;;;5.57;;
14688;SDS011;7432;48.728;9.154;2022-10-31T01:34:57;9.13;;;5.67;;
14688;SDS011;7432;48.728;9.154;2022-10-31T01:37:23;7.93;;;5.90;;
14688;SDS011;7432;48.728;9.154;2022-10-31T01:39:50;8.50;;;5.63;;
14688;SDS011;7432;48.728;9.154;2022-10-31T01:42:18;7.43;;;5.80;;
14688;SDS011;7432;48.728;9.154;2022-10-31T01:44:56;7.67;;;6.20;;
14688;SDS011;7432;48.728;9.154;2022-10-31T01:50:13;10.27;;;6.30;;
14688;SDS011;7432;48.728;9.154;2022-10-31T01:52:47;6.83;;;5.90;;
14688;SDS011;7432;48.728;9.154;2022-10-31T01:55:18;8.10;;;6.07;;
14688;SDS011;7432;48.728;9.154;2022-10-31T01:57:49;8.93;;;6.13;;
14688;SDS011;7432;48.728;9.154;2022-10-31T02:00:19;7.53;;;5.80;;
14688;SDS011;7432;48.728;9.154;2022-10-31T02:02:48;10.77;;;6.13;;
14688;SDS011;7432;48.728;9.154;2022-10-31T02:05:17;8.47;;;6.17;;
14688;SDS011;7432;48.728;9.154;2022-10-31T02:07:48;8.27;;;6.67;;
14688;SDS011;7432;48.728;9.154;2022-10-31T02:10:20;8.10;;;6.20;;
14688;SDS011;7432;48.728;9.154;2022-10-31T02:12:48;6.80;;;6.10;;
14688;SDS011;7432;48.728;9.154;2022-10-31T02:15:16;7.90;;;5.97;;
14688;SDS011;7432;48.728;9.154;2022-10-31T02:17:42;8.63;;;6.17;;
14688;SDS011;7432;48.728;9.154;2022-10-31T02:20:12;7.80;;;6.07;;
14688;SDS011;7432;48.728;9.154;2022-10-31T02:22:50;12.50;;;6.37;;
14688;SDS011;7432;48.728;9.154;2022-10-31T02:25:36;7.70;;;6.97;;
14688;SDS011;7432;48.728;9.154;2022-10-31T02:28:19;10.37;;;6.87;;
14688;SDS011;7432;48.728;9.154;2022-10-31T02:31:03;11.73;;;7.23;;
14688;SDS011;7432;48.728;9.154;2022-10-31T02:33:43;10.33;;;7.10;;
14688;SDS011;7432;48.728;9.154;2022-10-31T02:36:16;12.10;;;8.03;;
14688;SDS011;7432;48.728;9.154;2022-10-31T02:38:51;8.47;;;6.63;;
14688;SDS011;7432;48.728;9.154;2022-10-31T02:41:26;7.47;;;6.67;;
14688;SDS011;7432;48.728;9.154;2022-10-31T02:44:00;8.33;;;7.20;;
14688;SDS011;7432;48.728;9.154;2022-10-31T02:46:37;9.80;;;6.70;;
14688;SDS011;7432;48.728;9.154;2022-10-31T02:49:11;9.23;;;6.80;;
14688;SDS011;7432;48.728;9.154;2022-10-31T02:51:43;8.37;;;6.40;;
14688;SDS011;7432;48.728;9.154;2022-10-31T02:54:21;8.90;;;7.03;;
14688;SDS011;7432;48.728;9.154;2022-10-31T02:56:49;10.73;;;6.70;;
14688;SDS011;7432;48.728;9.154;2022-10-31T02:59:18;10.50;;;7.03;;
14688;SDS011;7432;48.728;9.154;2022-10-31T03:01:50;9.73;;;6.87;;
14688;SDS011;7432;48.728;9.154;2022-10-31T03:04:33;9.13;;;6.70;;
14688;SDS011;7432;48.728;9.154;2022-10-31T03:07:20;10.27;;;6.77;;
14688;SDS011;7432;48.728;9.154;2022-10-31T03:09:51;11.63;;;7.20;;
14688;SDS011;7432;48.728;9.154;2022-10-31T03:12:24;8.77;;;6.50;;
14688;SDS011;7432;48.728;9.154;2022-10-31T03:14:56;9.63;;;6.70;;
14688;SDS011;7432;48.728;9.154;2022-10-31T03:17:33;9.60;;;6.47;;
14688;SDS011;7432;48.728;9.154;2022-10-31T03:20:03;9.57;;;6.73;;
14688;SDS011;7432;48.728;9.154;2022-10-31T03:22:31;8.90;;;6.20;;
14688;SDS011;7432;48.728;9.154;2022-10-31T03:25:00;8.43;;;6.43;;
14688;SDS011;7432;48.728;9.154;2022-10-31T03:27:30;9.63;;;6.57;;
14688;SDS011;7432;48.728;9.154;2022-10-31T03:30:01;8.53;;;7.10;;
14688;SDS011;7432;48.728;9.154;2022-10-31T03:32:30;9.07;;;6.30;;
14688;SDS011;7432;48.728;9.154;2022-10-31T03:35:02;8.83;;;6.10;;
14688;SDS011;7432;48.728;9.154;2022-10-31T03:37:32;8.00;;;6.03;;
14688;SDS011;7432;48.728;9.154;2022-10-31T03:40:00;9.77;;;6.60;;
14688;SDS011;7432;48.728;9.154;2022-10-31T03:42:31;8.00;;;6.80;;
14688;SDS011;7432;48.728;9.154;2022-10-31T03:45:01;9.03;;;5.80;;
14688;SDS011;7432;48.728;9.154;2022-10-31T03:47:32;9.07;;;6.50;;
14688;SDS011;7432;48.728;9.154;2022-10-31T03:49:59;8.37;;;6.10;;
14688;SDS011;7432;48.728;9.154;2022-10-31T03:52:26;9.13;;;6.20;;
14688;SDS011;7432;48.728;9.154;2022-10-31T03:54:57;7.47;;;6.60;;
14688;SDS011;7432;48.728;9.154;2022-10-31T03:57:29;7.70;;;6.47;;
14688;SDS011;7432;48.728;9.154;2022-10-31T04:00:03;9.07;;;6.37;;
14688;SDS011;7432;48.728;9.154;2022-10-31T04:02:33;9.80;;;6.30;;
14688;SDS011;7432;48.728;9.154;2022-10-31T04:05:04;8.87;;;6.60;;
14688;SDS011;7432;48.728;9.154;2022-10-31T04:07:33;9.17;;;6.70;;
14688;SDS011;7432;48.728;9.154;2022-10-31T04:10:04;7.90;;;6.70;;
14688;SDS011;7432;48.728;9.154;2022-10-31T04:12:33;10.80;;;6.90;;
14688;SDS011;7432;48.728;9.154;2022-10-31T04:15:02;8.20;;;6.67;;
14688;SDS011;7432;48.728;9.154;2022-10-31T04:17:31;12.90;;;6.80;;
14688;SDS011;7432;48.728;9.154;2022-10-31T04:20:03;9.50;;;6.30;;
14688;SDS011;7432;48.728;9.154;2022-10-31T04:22:30;9.17;;;6.77;;
14688;SDS011;7432;48.728;9.154;2022-10-31T04:24:57;8.20;;;6.37;;
14688;SDS011;7432;48.728;9.154;2022-10-31T04:27:23;8.27;;;6.83;;
14688;SDS011;7432;48.728;9.154;2022-10-31T04:29:50;11.27;;;7.70;;
14688;SDS011;7432;48.728;9.154;2022-10-31T04:32:16;9.37;;;6.97;;
14688;SDS011;7432;48.728;9.154;2022-10-31T04:34:44;7.30;;;6.60;;
14688;SDS011;7432;48.728;9.154;2022-10-31T04:37:10;7.87;;;7.07;;
14688;SDS011;7432;48.728;9.154;2022-10-31T04:39:36;7.47;;;6.47;;
14688;SDS011;7432;48.728;9.154;2022-10-31T04:42:03;9.13;;;6.20;;
14688;SDS011;7432;48.728;9.154;2022-10-31T04:44:29;8.70;;;6.93;;
14688;SDS011;7432;48.728;9.154;2022-10-31T04:46:56;7.73;;;6.30;;
14688;SDS011;7432;48.728;9.154;2022-10-31T04:49:22;7.67;;;6.90;;
14688;SDS011;7432;48.728;9.154;2022-10-31T04:51:50;8.13;;;6.50;;
14688;SDS011;7432;48.728;9.154;2022-10-31T04:54:16;9.60;;;6.30;;
14688;SDS011;7432;48.728;9.154;2022-10-31T04:56:43;8.37;;;6.17;;
14688;SDS011;7432;48.728;9.154;2022-10-31T04:59:09;10.53;;;6.37;;
14688;SDS011;7432;48.728;9.154;2022-10-31T05:01:35;8.07;;;6.40;;
14688;SDS011;7432;48.728;9.154;2022-10-31T05:04:02;7.57;;;6.17;;
14688;SDS011;7432;48.728;9.154;2022-10-31T05:06:28;7.73;;;6.40;;
14688;SDS011;7432;48.728;9.154;2022-10-31T05:08:56;9.20;;;6.40;;
14688;SDS011;7432;48.728;9.154;2022-10-31T05:11:22;6.57;;;5.90;;
14688;SDS011;7432;48.728;9.154;2022-10-31T05:13:49;8.27;;;6.63;;
14688;SDS011;7432;48.728;9.154;2022-10-31T05:16:15;7.17;;;6.13;;
14688;SDS011;7432;48.728;9.154;2022-10-31T05:18:42;7.60;;;6.80;;
14688;SDS011;7432;48.728;9.154;2022-10-31T05:21:08;8.20;;;6.60;;
14688;SDS011;7432;48.728;9.154;2022-10-31T05:23:34;8.10;;;6.17;;
14688;SDS011;7432;48.728;9.154;2022-10-31T05:26:02;6.87;;;6.20;;
14688;SDS011;7432;48.728;9.154;2022-10-31T05:28:29;8.30;;;6.60;;
14688;SDS011;7432;48.728;9.154;2022-10-31T05:30:55;7.63;;;6.10;;
14688;SDS011;7432;48.728;9.154;2022-10-31T05:33:21;10.03;;;5.97;;
14688;SDS011;7432;48.728;9.154;2022-10-31T05:35:48;9.07;;;6.93;;
14688;SDS011;7432;48.728;9.154;2022-10-31T05:38:14;7.80;;;6.70;;
14688;SDS011;7432;48.728;9.154;2022-10-31T05:40:41;6.70;;;6.10;;
14688;SDS011;7432;48.728;9.154;2022-10-31T05:43:08;7.83;;;6.50;;
14688;SDS011;7432;48.728;9.154;2022-10-31T05:45:35;13.60;;;7.03;;
14688;SDS011;7432;48.728;9.154;2022-10-31T05:48:01;7.10;;;6.40;;
14688;SDS011;7432;48.728;9.154;2022-10-31T05:50:28;8.80;;;6.77;;
14688;SDS011;7432;48.728;9.154;2022-10-31T05:52:57;11.20;;;7.20;;
14688;SDS011;7432;48.728;9.154;2022-10-31T05:55:25;10.77;;;8.23;;
14688;SDS011;7432;48.728;9.154;2022-10-31T05:57:52;8.30;;;7.43;;
14688;SDS011;7432;48.728;9.154;2022-10-31T06:00:20;9.30;;;6.47;;
14688;SDS011;7432;48.728;9.154;2022-10-31T06:02:47;7.80;;;6.43;;
14688;SDS011;7432;48.728;9.154;2022-10-31T06:05:13;7.97;;;6.53;;
14688;SDS011;7432;48.728;9.154;2022-10-31T06:07:41;7.80;;;6.07;;
14688;SDS011;7432;48.728;9.154;2022-10-31T06:10:08;9.37;;;6.80;;
14688;SDS011;7432;48.728;9.154;2022-10-31T06:12:35;8.43;;;6.37;;
14688;SDS011;7432;48.728;9.154;2022-10-31T06:15:03;8.00;;;6.53;;
14688;SDS011;7432;48.728;9.154;2022-10-31T06:17:31;6.97;;;6.30;;
14688;SDS011;7432;48.728;9.154;2022-10-31T06:19:57;6.27;;;5.67;;
14688;SDS011;7432;48.728;9.154;2022-10-31T06:22:24;6.60;;;5.90;;
14688;SDS011;7432;48.728;9.154;2022-10-31T06:24:50;8.47;;;6.27;;
14688;SDS011;7432;48.728;9.154;2022-10-31T06:27:16;9.07;;;6.60;;
14688;SDS011;7432;48.728;9.154;2022-10-31T06:29:43;7.97;;;6.33;;
14688;SDS011;7432;48.728;9.154;2022-10-31T06:32:11;7.10;;;6.40;;
14688;SDS011;7432;48.728;9.154;2022-10-31T06:34:39;7.87;;;6.60;;
14688;SDS011;7432;48.728;9.154;2022-10-31T06:37:06;7.13;;;6.23;;
14688;SDS011;7432;48.728;9.154;2022-10-31T06:39:33;8.50;;;6.20;;
14688;SDS011;7432;48.728;9.154;2022-10-31T06:41:59;10.17;;;6.67;;
14688;SDS011;7432;48.728;9.154;2022-10-31T06:44:26;9.53;;;7.00;;
14688;SDS011;7432;48.728;9.154;2022-10-31T06:46:52;9.33;;;7.00;;
14688;SDS011;7432;48.728;9.154;2022-10-31T06:49:18;10.47;;;6.70;;
14688;SDS011;7432;48.728;9.154;2022-10-31T06:51:48;6.93;;;6.23;;
14688;SDS011;7432;48.728;9.154;2022-10-31T06:54:14;10.27;;;6.43;;
14688;SDS011;7432;48.728;9.154;2022-10-31T06:56:41;9.23;;;6.37;;
14688;SDS011;7432;48.728;9.154;2022-10-31T06:59:07;8.37;;;6.13;;
14688;SDS011;7432;48.728;9.154;2022-10-31T07:01:34;8.10;;;6.43;;
14688;SDS011;7432;48.728;9.154;2022-10-31T07:04:00;7.83;;;6.60;;
14688;SDS011;7432;48.728;9.154;2022-10-31T07:06:26;6.20;;;5.60;;
14688;SDS011;7432;48.728;9.154;2022-10-31T07:08:54;7.63;;;5.90;;
14688;SDS011;7432;48.728;9.154;2022-10-31T07:11:20;9.73;;;5.63;;
14688;SDS011;7432;48.728;9.154;2022-10-31T07:13:47;9.10;;;6.30;;
14688;SDS011;7432;48.728;9.154;2022-10-31T07:16:13;7.93;;;5.40;;
14688;SDS011;7432;48.728;9.154;2022-10-31T07:18:40;9.07;;;6.50;;
14688;SDS011;7432;48.728;9.154;2022-10-31T07:21:06;7.80;;;6.30;;
14688;SDS011;7432;48.728;9.154;2022-10-31T07:23:32;9.90;;;6.17;;
14688;SDS011;7432;48.728;9.154;2022-10-31T07:26:00;10.07;;;6.13;;
14688;SDS011;7432;48.728;9.154;2022-10-31T07:28:26;10.17;;;5.47;;
14688;SDS011;7432;48.728;9.154;2022-10-31T07:30:53;7.07;;;6.37;;
14688;SDS011;7432;48.728;9.154;2022-10-31T07:33:21;6.70;;;5.90;;
14688;SDS011;7432;48.728;9.154;2022-10-31T07:35:48;7.30;;;6.47;;
14688;SDS011;7432;48.728;9.154;2022-10-31T07:38:14;7.60;;;6.67;;
14688;SDS011;7432;48.728;9.154;2022-10-31T07:40:41;7.40;;;6.47;;
14688;SDS011;7432;48.728;9.154;2022-10-31T07:43:10;9.87;;;6.80;;
14688;SDS011;7432;48.728;9.154;2022-10-31T07:45:37;7.67;;;6.87;;
14688;SDS011;7432;48.728;9.154;2022-10-31T07:48:04;7.53;;;6.63;;
14688;SDS011;7432;48.728;9.154;2022-10-31T07:50:31;7.53;;;6.83;;
14688;SDS011;7432;48.728;9.154;2022-10-31T07:52:59;10.17;;;7.27;;
14688;SDS011;7432;48.728;9.154;2022-10-31T07:55:26;10.00;;;6.90;;
14688;SDS011;7432;48.728;9.154;2022-10-31T07:57:56;8.83;;;7.50;;
14688;SDS011;7432;48.728;9.154;2022-10-31T08:00:25;10.00;;;7.37;;
14688;SDS011;7432;48.728;9.154;2022-10-31T08:02:58;9.27;;;6.83;;
14688;SDS011;7432;48.728;9.154;2022-10-31T08:05:25;8.93;;;7.23;;
14688;SDS011;7432;48.728;9.154;2022-10-31T08:07:52;9.33;;;7.80;;
14688;SDS011;7432;48.728;9.154;2022-10-31T08:10:18;11.43;;;7.83;;
14688;SDS011;7432;48.728;9.154;2022-10-31T08:12:45;8.83;;;8.07;;
14688;SDS011;7432;48.728;9.154;2022-10-31T08:15:12;9.53;;;8.57;;
14688;SDS011;7432;48.728;9.154;2022-10-31T08:17:40;8.57;;;7.37;;
14688;SDS011;7432;48.728;9.154;2022-10-31T08:20:06;10.60;;;8.50;;
14688;SDS011;7432;48.728;9.154;2022-10-31T08:22:34;9.30;;;7.97;;
14688;SDS011;7432;48.728;9.154;2022-10-31T08:25:00;11.03;;;8.40;;
14688;SDS011;7432;48.728;9.154;2022-10-31T08:27:26;10.13;;;8.07;;
14688;SDS011;7432;48.728;9.154;2022-10-31T08:29:53;9.97;;;8.37;;
14688;SDS011;7432;48.728;9.154;2022-10-31T08:32:19;9.35;;;8.55;;
14688;SDS011;7432;48.728;9.154;2022-10-31T08:34:47;9.63;;;8.70;;
14688;SDS011;7432;48.728;9.154;2022-10-31T08:37:13;8.80;;;8.00;;
14688;SDS011;7432;48.728;9.154;2022-10-31T08:39:44;12.67;;;8.77;;
14688;SDS011;7432;48.728;9.154;2022-10-31T08:42:11;9.77;;;8.73;;
14688;SDS011;7432;48.728;9.154;2022-10-31T08:44:37;9.97;;;9.07;;
14688;SDS011;7432;48.728;9.154;2022-10-31T08:47:04;12.47;;;8.60;;
14688;SDS011;7432;48.728;9.154;2022-10-31T08:49:30;10.63;;;8.63;;
14688;SDS011;7432;48.728;9.154;2022-10-31T08:51:58;10.60;;;8.67;;
14688;SDS011;7432;48.728;9.154;2022-10-31T08:54:24;8.73;;;7.87;;
14688;SDS011;7432;48.728;9.154;2022-10-31T08:56:53;8.97;;;8.00;;
14688;SDS011;7432;48.728;9.154;2022-10-31T08:59:20;7.90;;;7.27;;
14688;SDS011;7432;48.728;9.154;2022-10-31T09:01:46;9.53;;;8.10;;
14688;SDS011;7432;48.728;9.154;2022-10-31T09:04:12;9.23;;;8.33;;
14688;SDS011;7432;48.728;9.154;2022-10-31T09:06:39;9.00;;;8.20;;
14688;SDS011;7432;48.728;9.154;2022-10-31T09:09:07;9.47;;;7.87;;
14688;SDS011;7432;48.728;9.154;2022-10-31T09:11:33;8.87;;;7.87;;
14688;SDS011;7432;48.728;9.154;2022-10-31T09:14:00;9.57;;;8.00;;
14688;SDS011;7432;48.728;9.154;2022-10-31T09:16:26;11.53;;;7.53;;
14688;SDS011;7432;48.728;9.154;2022-10-31T09:18:52;9.07;;;8.07;;
14688;SDS011;7432;48.728;9.154;2022-10-31T09:21:19;8.60;;;7.70;;
14688;SDS011;7432;48.728;9.154;2022-10-31T09:23:45;8.47;;;7.63;;
14688;SDS011;7432;48.728;9.154;2022-10-31T09:26:13;8.63;;;7.73;;
14688;SDS011;7432;48.728;9.154;2022-10-31T09:28:39;8.83;;;7.73;;
14688;SDS011;7432;48.728;9.154;2022-10-31T09:31:06;10.57;;;7.90;;
14688;SDS011;7432;48.728;9.154;2022-10-31T09:33:32;9.63;;;8.33;;
14688;SDS011;7432;48.728;9.154;2022-10-31T09:35:58;9.23;;;8.43;;
14688;SDS011;7432;48.728;9.154;2022-10-31T09:38:25;11.17;;;8.03;;
14688;SDS011;7432;48.728;9.154;2022-10-31T09:40:52;9.00;;;7.67;;
14688;SDS011;7432;48.728;9.154;2022-10-31T09:43:25;8.53;;;7.73;;
14688;SDS011;7432;48.728;9.154;2022-10-31T09:46:01;12.17;;;8.40;;
14688;SDS011;7432;48.728;9.154;2022-10-31T09:48:42;13.17;;;8.23;;
14688;SDS011;7432;48.728;9.154;2022-10-31T09:51:17;9.57;;;8.40;;
14688;SDS011;7432;48.728;9.154;2022-10-31T09:53:47;10.43;;;9.05;;
14688;SDS011;7432;48.728;9.154;2022-10-31T09:56:18;9.33;;;8.23;;
14688;SDS011;7432;48.728;9.154;2022-10-31T09:58:48;11.93;;;8.97;;
14688;SDS011;7432;48.728;9.154;2022-10-31T10:04:09;8.80;;;8.00;;
14688;SDS011;7432;48.728;9.154;2022-10-31T10:06:47;9.50;;;8.30;;
14688;SDS011;7432;48.728;9.154;2022-10-31T10:09:16;8.63;;;7.80;;
14688;SDS011;7432;48.728;9.154;2022-10-31T10:11:47;11.07;;;7.50;;
14688;SDS011;7432;48.728;9.154;2022-10-31T10:14:31;8.90;;;8.00;;
14688;SDS011;7432;48.728;9.154;2022-10-31T10:17:11;9.10;;;7.63;;
14688;SDS011;7432;48.728;9.154;2022-10-31T10:19:50;9.53;;;8.20;;
14688;SDS011;7432;48.728;9.154;2022-10-31T10:22:29;9.30;;;8.23;;
14688;SDS011;7432;48.728;9.154;2022-10-31T10:25:09;15.00;;;8.40;;
14688;SDS011;7432;48.728;9.154;2022-10-31T10:27:49;13.07;;;8.63;;
14688;SDS011;7432;48.728;9.154;2022-10-31T10:30:26;9.17;;;8.00;;
14688;SDS011;7432;48.728;9.154;2022-10-31T10:33:02;12.17;;;8.67;;
14688;SDS011;7432;48.728;9.154;2022-10-31T10:35:33;10.63;;;8.33;;
14688;SDS011;7432;48.728;9.154;2022-10-31T10:38:02;9.73;;;7.80;;
14688;SDS011;7432;48.728;9.154;2022-10-31T10:40:37;9.27;;;8.30;;
14688;SDS011;7432;48.728;9.154;2022-10-31T10:43:11;9.07;;;8.17;;
14688;SDS011;7432;48.728;9.154;2022-10-31T10:45:50;9.50;;;7.97;;
14688;SDS011;7432;48.728;9.154;2022-10-31T10:48:42;8.83;;;8.10;;
14688;SDS011;7432;48.728;9.154;2022-10-31T10:51:17;8.73;;;7.90;;
14688;SDS011;7432;48.728;9.154;2022-10-31T10:53:49;8.55;;;7.75;;
14688;SDS011;7432;48.728;9.154;2022-10-31T10:56:36;9.13;;;7.77;;
14688;SDS011;7432;48.728;9.154;2022-10-31T10:59:11;14.47;;;8.57;;
14688;SDS011;7432;48.728;9.154;2022-10-31T11:01:41;13.67;;;8.47;;
14688;SDS011;7432;48.728;9.154;2022-10-31T11:04:14;10.80;;;8.30;;
14688;SDS011;7432;48.728;9.154;2022-10-31T11:06:58;12.17;;;8.87;;
14688;SDS011;7432;48.728;9.154;2022-10-31T11:09:26;11.43;;;8.87;;
14688;SDS011;7432;48.728;9.154;2022-10-31T11:11:52;10.93;;;9.20;;
14688;SDS011;7432;48.728;9.154;2022-10-31T11:14:20;10.33;;;8.27;;
14688;SDS011;7432;48.728;9.154;2022-10-31T11:16:49;14.07;;;8.53;;
14688;SDS011;7432;48.728;9.154;2022-10-31T11:19:20;11.53;;;8.70;;
14688;SDS011;7432;48.728;9.154;2022-10-31T11:21:48;11.10;;;8.83;;
14688;SDS011;7432;48.728;9.154;2022-10-31T11:24:17;10.20;;;9.20;;
14688;SDS011;7432;48.728;9.154;2022-10-31T11:26:45;11.60;;;9.67;;
14688;SDS011;7432;48.728;9.154;2022-10-31T11:29:14;14.47;;;9.03;;
14688;SDS011;7432;48.728;9.154;2022-10-31T11:31:43;10.23;;;8.83;;
14688;SDS011;7432;48.728;9.154;2022-10-31T11:34:18;9.20;;;8.13;;
14688;SDS011;7432;48.728;9.154;2022-10-31T11:36:54;12.17;;;9.17;;
14688;SDS011;7432;48.728;9.154;2022-10-31T11:39:27;10.60;;;8.87;;
14688;SDS011;7432;48.728;9.154;2022-10-31T11:41:54;12.07;;;8.57;;
14688;SDS011;7432;48.728;9.154;2022-10-31T11:44:25;11.50;;;9.10;;
14688;SDS011;7432;48.728;9.154;2022-10-31T11:46:54;10.67;;;8.77;;
14688;SDS011;7432;48.728;9.154;2022-10-31T11:49:27;9.60;;;8.70;;
14688;SDS011;7432;48.728;9.154;2022-10-31T11:51:57;12.70;;;9.30;;
14688;SDS011;7432;48.728;9.154;2022-10-31T11:54:29;9.67;;;8.30;;
14688;SDS011;7432;48.728;9.154;2022-10-31T11:56:57;9.57;;;7.83;;
14688;SDS011;7432;48.728;9.154;2022-10-31T11:59:25;10.87;;;9.23;;
14688;SDS011;7432;48.728;9.154;2022-10-31T12:01:53;11.17;;;8.20;;
14688;SDS011;7432;48.728;9.154;2022-10-31T12:04:24;12.53;;;9.13;;
14688;SDS011;7432;48.728;9.154;2022-10-31T12:06:58;11.90;;;10.33;;
14688;SDS011;7432;48.728;9.154;2022-10-31T12:09:26;10.97;;;9.23;;
14688;SDS011;7432;48.728;9.154;2022-10-31T12:12:05;12.03;;;9.43;;
14688;SDS011;7432;48.728;9.154;2022-10-31T12:14:43;11.07;;;8.77;;
14688;SDS011;7432;48.728;9.154;2022-10-31T12:17:20;11.23;;;9.17;;
14688;SDS011;7432;48.728;9.154;2022-10-31T12:19:54;8.93;;;8.05;;
14688;SDS011;7432;48.728;9.154;2022-10-31T12:22:30;8.98;;;8.07;;
14688;SDS011;7432;48.728;9.154;2022-10-31T12:25:12;12.18;;;11.02;;
14688;SDS011;7432;48.728;9.154;2022-10-31T12:27:58;10.10;;;8.95;;
14688;SDS011;7432;48.728;9.154;2022-10-31T12:30:32;11.27;;;8.43;;
14688;SDS011;7432;48.728;9.154;2022-10-31T12:33:16;9.10;;;8.07;;
14688;SDS011;7432;48.728;9.154;2022-10-31T12:35:54;13.10;;;9.15;;
14688;SDS011;7432;48.728;9.154;2022-10-31T12:38:31;11.27;;;8.33;;
14688;SDS011;7432;48.728;9.154;2022-10-31T12:44:00;8.65;;;7.88;;
14688;SDS011;7432;48.728;9.154;2022-10-31T12:46:36;9.40;;;8.03;;
14688;SDS011;7432;48.728;9.154;2022-10-31T12:49:24;9.53;;;8.23;;
14688;SDS011;7432;48.728;9.154;2022-10-31T12:52:10;8.90;;;8.00;;
14688;SDS011;7432;48.728;9.154;2022-10-31T12:54:56;9.88;;;8.63;;
14688;SDS011;7432;48.728;9.154;2022-10-31T12:57:36;9.13;;;8.30;;
14688;SDS011;7432;48.728;9.154;2022-10-31T13:00:10;12.60;;;8.57;;
14688;SDS011;7432;48.728;9.154;2022-10-31T13:02:42;9.80;;;8.17;;
14688;SDS011;7432;48.728;9.154;2022-10-31T13:05:13;11.57;;;8.20;;
14688;SDS011;7432;48.728;9.154;2022-10-31T13:07:46;8.90;;;8.00;;
14688;SDS011;7432;48.728;9.154;2022-10-31T13:10:19;8.97;;;8.07;;
14688;SDS011;7432;48.728;9.154;2022-10-31T13:12:50;8.83;;;8.03;;
14688;SDS011;7432;48.728;9.154;2022-10-31T13:15:20;9.00;;;7.70;;
14688;SDS011;7432;48.728;9.154;2022-10-31T13:17:49;10.33;;;7.80;;
14688;SDS011;7432;48.728;9.154;2022-10-31T13:20:20;12.30;;;8.53;;
14688;SDS011;7432;48.728;9.154;2022-10-31T13:22:53;12.13;;;8.17;;
14688;SDS011;7432;48.728;9.154;2022-10-31T13:25:27;9.93;;;7.90;;
14688;SDS011;7432;48.728;9.154;2022-10-31T13:27:59;11.70;;;8.73;;
14688;SDS011;7432;48.728;9.154;2022-10-31T13:30:30;11.03;;;8.87;;
14688;SDS011;7432;48.728;9.154;2022-10-31T13:33:00;8.67;;;7.83;;
14688;SDS011;7432;48.728;9.154;2022-10-31T13:35:33;12.37;;;8.17;;
14688;SDS011;7432;48.728;9.154;2022-10-31T13:38:11;10.10;;;8.70;;
14688;SDS011;7432;48.728;9.154;2022-10-31T13:40:45;9.93;;;8.87;;
14688;SDS011;7432;48.728;9.154;2022-10-31T13:43:22;9.67;;;8.67;;
14688;SDS011;7432;48.728;9.154;2022-10-31T13:45:54;9.73;;;8.73;;
14688;SDS011;7432;48.728;9.154;2022-10-31T13:48:35;10.60;;;8.77;;
14688;SDS011;7432;48.728;9.154;2022-10-31T13:51:07;12.03;;;8.57;;
14688;SDS011;7432;48.728;9.154;2022-10-31T13:53:37;12.77;;;8.47;;
14688;SDS011;7432;48.728;9.154;2022-10-31T13:56:10;9.33;;;8.33;;
14688;SDS011;7432;48.728;9.154;2022-10-31T13:59:14;11.77;;;8.70;;
14688;SDS011;7432;48.728;9.154;2022-10-31T14:01:46;8.93;;;8.00;;
14688;SDS011;7432;48.728;9.154;2022-10-31T14:04:15;11.23;;;8.53;;
14688;SDS011;7432;48.728;9.154;2022-10-31T14:06:46;11.57;;;9.10;;
14688;SDS011;7432;48.728;9.154;2022-10-31T14:09:22;10.57;;;9.23;;
14688;SDS011;7432;48.728;9.154;2022-10-31T14:11:51;12.13;;;8.53;;
14688;SDS011;7432;48.728;9.154;2022-10-31T14:14:19;11.03;;;8.63;;
14688;SDS011;7432;48.728;9.154;2022-10-31T14:16:52;10.00;;;9.00;;
14688;SDS011;7432;48.728;9.154;2022-10-31T14:19:20;12.77;;;8.93;;
14688;SDS011;7432;48.728;9.154;2022-10-31T14:21:48;10.43;;;9.10;;
14688;SDS011;7432;48.728;9.154;2022-10-31T14:24:16;9.50;;;8.60;;
14688;SDS011;7432;48.728;9.154;2022-10-31T14:26:59;10.03;;;8.90;;
14688;SDS011;7432;48.728;9.154;2022-10-31T14:29:27;12.13;;;8.80;;
14688;SDS011;7432;48.728;9.154;2022-10-31T14:31:56;11.83;;;8.67;;
14688;SDS011;7432;48.728;9.154;2022-10-31T14:34:36;9.70;;;8.80;;
14688;SDS011;7432;48.728;9.154;2022-10-31T14:37:08;15.97;;;9.00;;
14688;SDS011;7432;48.728;9.154;2022-10-31T14:39:48;11.03;;;8.90;;
14688;SDS011;7432;48.728;9.154;2022-10-31T14:42:29;10.60;;;8.93;;
14688;SDS011;7432;48.728;9.154;2022-10-31T14:45:06;11.60;;;9.17;;
14688;SDS011;7432;48.728;9.154;2022-10-31T14:47:44;10.57;;;8.40;;
14688;SDS011;7432;48.728;9.154;2022-10-31T14:50:21;9.37;;;8.50;;
14688;SDS011;7432;48.728;9.154;2022-10-31T14:52:56;9.73;;;8.23;;
14688;SDS011;7432;48.728;9.154;2022-10-31T14:55:27;10.70;;;8.10;;
14688;SDS011;7432;48.728;9.154;2022-10-31T14:57:56;9.80;;;7.80;;
14688;SDS011;7432;48.728;9.154;2022-10-31T15:00:26;9.73;;;8.23;;
14688;SDS011;7432;48.728;9.154;2022-10-31T15:02:57;10.70;;;8.07;;
14688;SDS011;7432;48.728;9.154;2022-10-31T15:05:31;8.37;;;6.80;;
14688;SDS011;7432;48.728;9.154;2022-10-31T15:08:00;8.60;;;7.90;;
14688;SDS011;7432;48.728;9.154;2022-10-31T15:10:28;11.97;;;8.13;;
14688;SDS011;7432;48.728;9.154;2022-10-31T15:13:07;8.90;;;7.20;;
14688;SDS011;7432;48.728;9.154;2022-10-31T15:15:35;8.47;;;7.47;;
14688;SDS011;7432;48.728;9.154;2022-10-31T15:18:03;10.70;;;7.73;;
14688;SDS011;7432;48.728;9.154;2022-10-31T15:20:33;8.17;;;7.37;;
14688;SDS011;7432;48.728;9.154;2022-10-31T15:23:03;8.40;;;7.50;;
14688;SDS011;7432;48.728;9.154;2022-10-31T15:25:32;9.67;;;7.87;;